Time;durP1;ratioP1;P1;durP2;ratioP2;P2;SDS_P1;SDS_P2;PMS_P1;PMS_P2;Temp;Humidity;BMP_temperature;BMP_pressure;BME280_temperature;BME280_humidity;BME280_pressure;Samples;Min_cycle;Max_cycle;Signal;HPM_P1;HPM_P2
2022/02/03 00:01:59;;;;;;;26.02;9.73;;;29.70;65.50;;;;;;5103360;28;20321;-45
2022/02/03 00:04:30;;;;;;;19.50;10.82;;;29.70;65.50;;;;;;5104725;28;20040;-50
2022/02/03 00:07:03;;;;;;;26.00;10.55;;;29.70;65.30;;;;;;5103970;28;20019;-47
2022/02/03 00:23:21;;;;;;;27.38;10.07;;;29.70;64.30;;;;;;5083547;28;20023;-45
2022/02/03 00:25:46;;;;;;;23.50;10.20;;;29.60;64.10;;;;;;5083320;28;20122;-46
2022/02/03 00:28:23;;;;;;;21.52;8.85;;;29.60;64.00;;;;;;5083792;28;20048;-47
2022/02/03 00:49:15;;;;;;;15.30;8.35;;;29.50;62.30;;;;;;5087647;28;20288;-51
2022/02/03 00:51:51;;;;;;;13.82;7.80;;;29.40;62.20;;;;;;5087251;28;20013;-56
2022/02/03 00:54:21;;;;;;;24.20;8.02;;;29.40;61.80;;;;;;5104820;28;20032;-46
2022/02/03 00:57:16;;;;;;;21.45;8.10;;;29.40;61.80;;;;;;5107308;28;20091;-45
2022/02/03 00:59:57;;;;;;;30.60;8.00;;;29.40;61.70;;;;;;5107764;28;20051;-46
2022/02/03 01:02:28;;;;;;;20.35;10.18;;;29.40;61.60;;;;;;5104137;28;20347;-51
2022/02/03 01:04:58;;;;;;;32.00;13.52;;;29.40;61.60;;;;;;5107059;28;20081;-51
2022/02/03 01:07:25;;;;;;;40.53;17.50;;;29.40;61.60;;;;;;5107224;28;20079;-55
2022/02/03 01:10:09;;;;;;;45.08;23.48;;;29.40;61.60;;;;;;5102302;28;20069;-54
2022/02/03 01:12:54;;;;;;;59.58;32.45;;;29.30;61.40;;;;;;5101257;28;20181;-57
2022/02/03 01:18:34;;;;;;;60.65;31.23;;;29.30;61.30;;;;;;5100447;28;20231;-56
2022/02/03 01:45:06;;;;;;;63.80;36.67;;;29.20;60.20;;;;;;5086772;28;20027;-47
2022/02/03 01:52:51;;;;;;;51.17;28.90;;;29.20;59.90;;;;;;5085718;28;20032;-48
2022/02/03 01:55:27;;;;;;;68.03;41.42;;;29.10;59.90;;;;;;5085914;28;20012;-54
2022/02/03 01:58:14;;;;;;;64.63;40.95;;;29.10;59.90;;;;;;5086204;28;20020;-55
2022/02/03 02:00:45;;;;;;;63.38;36.42;;;29.10;59.90;;;;;;5086120;28;20066;-50
2022/02/03 02:03:13;;;;;;;45.70;27.63;;;29.00;59.90;;;;;;5085827;28;20020;-48
2022/02/03 02:06:01;;;;;;;49.03;27.60;;;29.00;59.90;;;;;;5085776;28;20340;-56
2022/02/03 02:08:44;;;;;;;41.25;27.35;;;29.00;59.90;;;;;;5085726;28;20035;-43
2022/02/03 02:11:33;;;;;;;46.10;28.60;;;29.00;59.80;;;;;;5085348;28;20024;-49
2022/02/03 02:15:15;;;;;;;68.88;29.25;;;29.00;59.70;;;;;;5085735;28;20024;-46
2022/02/03 02:36:52;;;;;;;42.47;28.08;;;29.00;59.60;;;;;;5097323;28;20016;-43
2022/02/03 02:42:53;;;;;;;58.58;35.63;;;28.90;58.60;;;;;;5084843;28;20044;-46
2022/02/03 02:45:38;;;;;;;61.58;36.47;;;28.80;58.40;;;;;;5086554;28;20028;-46
2022/02/03 02:48:34;;;;;;;60.28;35.22;;;28.80;58.40;;;;;;5093453;28;20077;-48
2022/02/03 02:51:16;;;;;;;53.50;33.38;;;28.80;58.30;;;;;;5097825;28;20052;-47
2022/02/03 02:56:34;;;;;;;45.78;32.28;;;28.80;58.30;;;;;;5104967;28;20339;-54
2022/02/03 02:59:56;;;;;;;45.13;31.75;;;28.80;58.20;;;;;;5105308;28;20023;-47
2022/02/03 03:30:25;;;;;;;41.90;28.38;;;28.80;58.20;;;;;;5084141;28;20070;-46
2022/02/03 03:35:55;;;;;;;36.33;26.88;;;28.80;58.00;;;;;;5089610;28;20066;-46
2022/02/03 03:38:25;;;;;;;38.72;26.83;;;28.80;58.00;;;;;;5084244;28;20347;-51
2022/02/03 03:40:54;;;;;;;38.90;25.70;;;28.80;57.90;;;;;;5083183;28;20021;-53
2022/02/03 03:43:33;;;;;;;44.05;26.13;;;28.80;58.00;;;;;;5084243;28;20021;-48
2022/02/03 03:46:24;;;;;;;36.63;26.23;;;28.80;58.50;;;;;;5084125;28;20078;-54
2022/02/03 03:49:29;;;;;;;38.33;24.95;;;28.80;58.00;;;;;;5084130;28;20090;-49
2022/02/03 03:52:06;;;;;;;40.13;25.48;;;28.80;57.90;;;;;;5076961;28;20021;-51
2022/02/03 03:54:39;;;;;;;36.33;24.85;;;28.80;58.00;;;;;;5089861;28;20024;-57
2022/02/03 04:33:37;;;;;;;36.20;22.08;;;28.60;58.00;;;;;;5108099;28;20015;-49
2022/02/03 04:54:21;;;;;;;28.80;21.20;;;28.60;58.80;;;;;;5108076;28;20165;-49
2022/02/03 04:57:51;;;;;;;26.95;21.80;;;28.60;58.90;;;;;;5107659;28;20031;-50
2022/02/03 05:10:03;;;;;;;28.60;20.60;;;28.50;59.00;;;;;;5107529;28;20024;-52
2022/02/03 05:16:43;;;;;;;29.20;21.38;;;28.50;58.90;;;;;;5107171;28;20043;-49
2022/02/03 05:49:17;;;;;;;30.17;21.23;;;28.40;58.70;;;;;;5106526;28;20061;-48
2022/02/03 06:05:30;;;;;;;25.10;21.25;;;28.30;58.50;;;;;;5106066;28;20024;-47
2022/02/03 06:13:28;;;;;;;27.15;20.60;;;28.30;58.70;;;;;;5105839;28;20087;-46
2022/02/03 06:16:29;;;;;;;30.40;20.98;;;28.30;58.90;;;;;;5106128;28;20031;-46
2022/02/03 06:21:49;;;;;;;32.35;20.95;;;28.30;59.00;;;;;;5105591;28;20069;-49
2022/02/03 06:24:20;;;;;;;29.40;21.15;;;28.20;58.90;;;;;;5105926;28;20035;-53
2022/02/03 06:29:37;;;;;;;29.75;20.15;;;28.20;59.20;;;;;;5106492;28;20036;-46
2022/02/03 06:32:04;;;;;;;31.80;20.15;;;28.20;59.20;;;;;;5105385;28;20024;-46
2022/02/03 06:34:31;;;;;;;28.08;19.75;;;28.20;59.30;;;;;;5105806;28;20303;-45
2022/02/03 06:36:58;;;;;;;28.23;20.10;;;28.20;59.20;;;;;;5105322;28;20209;-47
2022/02/03 06:39:27;;;;;;;33.15;20.65;;;28.20;59.20;;;;;;5105857;28;20039;-53
2022/02/03 06:41:58;;;;;;;28.63;20.27;;;28.20;59.30;;;;;;5105321;28;20024;-56
2022/02/03 06:44:35;;;;;;;33.35;19.17;;;28.20;59.40;;;;;;5105634;28;20095;-56
2022/02/03 06:47:08;;;;;;;23.75;18.63;;;28.20;59.50;;;;;;5105081;28;20061;-52
2022/02/03 06:50:26;;;;;;;26.13;19.75;;;28.10;59.50;;;;;;5104966;28;20197;-48
2022/02/03 06:52:35;;;;;;;27.70;20.40;;;28.20;59.70;;;;;;5091133;28;20024;-51
2022/02/03 06:55:28;;;;;;;25.88;20.05;;;28.10;59.60;;;;;;5105346;28;20307;-60
2022/02/03 06:58:02;;;;;;;26.08;18.70;;;28.10;59.80;;;;;;5104904;28;20043;-49
2022/02/03 07:00:36;;;;;;;32.90;19.95;;;28.10;59.90;;;;;;5104801;28;20028;-50
2022/02/03 07:03:11;;;;;;;27.45;19.55;;;28.10;60.00;;;;;;5104929;28;20028;-49
2022/02/03 07:05:37;;;;;;;28.55;19.00;;;28.10;60.00;;;;;;5105157;28;20062;-50
2022/02/03 07:08:06;;;;;;;36.25;19.33;;;28.10;60.10;;;;;;5105476;28;20028;-46
2022/02/03 07:10:33;;;;;;;28.13;19.00;;;28.10;60.20;;;;;;5104806;28;20028;-53
2022/02/03 07:12:59;;;;;;;27.20;19.10;;;28.00;60.30;;;;;;5104656;28;20016;-53
2022/02/03 07:15:26;;;;;;;26.77;17.85;;;28.00;60.30;;;;;;5104659;28;20024;-55
2022/02/03 07:17:57;;;;;;;25.00;18.23;;;28.00;60.20;;;;;;5104659;28;20208;-56
2022/02/03 07:20:25;;;;;;;26.38;17.83;;;28.00;60.20;;;;;;5104360;28;20028;-54
2022/02/03 07:22:51;;;;;;;24.45;17.83;;;28.00;60.30;;;;;;5104505;28;20043;-49
2022/02/03 07:25:18;;;;;;;24.30;17.42;;;28.00;60.30;;;;;;5104572;28;20028;-47
2022/02/03 07:27:45;;;;;;;26.95;17.73;;;28.00;60.30;;;;;;5104385;28;20047;-54
2022/02/03 07:30:13;;;;;;;25.00;17.58;;;28.00;60.40;;;;;;5104493;28;20040;-56
2022/02/03 07:32:39;;;;;;;23.33;16.70;;;28.00;60.40;;;;;;5104283;28;20016;-52
2022/02/03 07:35:09;;;;;;;27.42;18.17;;;28.00;60.30;;;;;;5104360;28;20031;-56
2022/02/03 07:37:47;;;;;;;21.55;17.48;;;27.90;60.40;;;;;;5104225;28;20028;-53
2022/02/03 07:40:15;;;;;;;25.45;17.25;;;27.90;60.40;;;;;;5104615;28;20024;-50
2022/02/03 07:42:44;;;;;;;21.98;17.13;;;27.90;60.40;;;;;;5104109;28;20087;-52
2022/02/03 07:45:11;;;;;;;24.83;16.52;;;27.90;60.50;;;;;;5104271;28;20073;-53
2022/02/03 07:47:48;;;;;;;22.80;17.05;;;27.90;60.50;;;;;;5104294;28;20091;-51
2022/02/03 07:50:16;;;;;;;20.52;17.10;;;27.90;60.70;;;;;;5103730;28;20073;-50
2022/02/03 07:52:44;;;;;;;20.60;16.20;;;27.90;60.70;;;;;;5104163;28;20087;-51
2022/02/03 07:55:12;;;;;;;24.05;17.73;;;27.80;60.50;;;;;;5104101;28;20085;-49
2022/02/03 07:57:46;;;;;;;24.02;17.50;;;27.80;60.60;;;;;;5104159;28;20012;-56
2022/02/03 08:00:15;;;;;;;24.13;17.45;;;27.80;60.70;;;;;;5104056;28;20130;-50
2022/02/03 08:02:43;;;;;;;22.30;17.00;;;27.80;60.80;;;;;;5104110;28;20027;-50
2022/02/03 08:05:17;;;;;;;24.63;17.85;;;27.80;60.90;;;;;;5104428;28;20031;-56
2022/02/03 08:08:45;;;;;;;25.20;16.83;;;27.80;61.00;;;;;;5103871;28;20016;-47
2022/02/03 08:10:47;;;;;;;25.48;17.40;;;27.80;61.00;;;;;;5089852;28;20071;-48
2022/02/03 08:13:26;;;;;;;21.65;17.00;;;27.80;61.20;;;;;;5104110;28;20012;-50
2022/02/03 08:16:01;;;;;;;25.75;18.70;;;27.80;61.40;;;;;;5104041;28;20062;-49
2022/02/03 08:18:29;;;;;;;24.98;17.30;;;27.80;61.60;;;;;;5104202;28;20016;-47
2022/02/03 08:21:01;;;;;;;24.30;18.05;;;27.70;61.40;;;;;;5103813;28;20051;-49
2022/02/03 08:26:18;;;;;;;25.80;19.25;;;27.70;61.30;;;;;;5103939;28;20020;-47
2022/02/03 08:31:25;;;;;;;26.23;18.25;;;27.70;61.50;;;;;;5103953;28;20021;-49
2022/02/03 08:33:55;;;;;;;24.70;18.80;;;27.70;61.70;;;;;;5103896;28;20016;-51
2022/02/03 08:36:22;;;;;;;24.48;18.45;;;27.70;61.70;;;;;;5103932;28;20194;-48
2022/02/03 08:38:54;;;;;;;22.98;18.05;;;27.70;61.80;;;;;;5104132;28;20261;-48
2022/02/03 08:41:23;;;;;;;24.02;18.75;;;27.70;61.80;;;;;;5103778;28;20028;-50
2022/02/03 08:43:50;;;;;;;22.95;18.20;;;27.70;61.80;;;;;;5103843;28;20131;-49
2022/02/03 08:46:16;;;;;;;24.92;18.50;;;27.70;61.70;;;;;;5103697;28;20022;-48
2022/02/03 08:48:43;;;;;;;24.17;17.85;;;27.70;61.70;;;;;;5103972;28;20223;-52
2022/02/03 08:51:13;;;;;;;26.20;18.33;;;27.70;61.60;;;;;;5103741;28;20342;-56
2022/02/03 08:53:44;;;;;;;22.95;17.60;;;27.70;61.70;;;;;;5103979;28;20031;-48
2022/02/03 08:59:26;;;;;;;24.77;18.75;;;27.60;61.50;;;;;;5104427;28;20020;-51
2022/02/03 09:40:00;;;;;;;25.38;18.35;;;27.60;64.00;;;;;;5106942;28;20201;-51
2022/02/03 09:53:37;;;;;;;24.10;17.90;;;27.60;64.30;;;;;;5106381;28;20083;-53
2022/02/03 09:59:05;;;;;;;25.75;16.63;;;27.60;64.50;;;;;;5087034;28;20070;-49
2022/02/03 10:01:41;;;;;;;23.85;17.50;;;27.60;64.30;;;;;;5105958;28;20020;-55
2022/02/03 10:04:13;;;;;;;24.88;17.50;;;27.60;64.60;;;;;;5106317;28;20051;-50
2022/02/03 10:06:50;;;;;;;28.60;17.48;;;27.50;64.70;;;;;;5105883;28;20020;-51
2022/02/03 10:09:34;;;;;;;33.58;16.95;;;27.50;64.80;;;;;;5106646;28;20048;-59
2022/02/03 10:12:01;;;;;;;30.88;17.85;;;27.50;64.80;;;;;;5105312;28;20028;-52
2022/02/03 10:14:55;;;;;;;38.22;18.23;;;27.50;64.80;;;;;;5106653;28;20023;-50
2022/02/03 10:17:32;;;;;;;28.95;17.63;;;27.50;65.10;;;;;;5103316;28;20223;-46
2022/02/03 10:20:09;;;;;;;30.67;16.65;;;27.50;65.30;;;;;;5105853;28;20031;-49
2022/02/03 10:22:46;;;;;;;24.25;15.88;;;27.50;65.60;;;;;;5105372;28;20020;-46
2022/02/03 10:25:17;;;;;;;27.35;16.13;;;27.50;66.10;;;;;;5105855;28;20031;-50
2022/02/03 10:27:49;;;;;;;27.42;14.90;;;27.50;66.20;;;;;;5105284;28;20027;-48
2022/02/03 10:30:24;;;;;;;22.90;14.23;;;27.50;66.30;;;;;;5105696;28;20101;-47
2022/02/03 10:32:52;;;;;;;21.10;13.95;;;27.50;66.60;;;;;;5105425;28;20019;-51
2022/02/03 10:35:30;;;;;;;22.55;14.02;;;27.50;66.60;;;;;;5105393;28;20023;-48
2022/02/03 11:08:46;;;;;;;19.80;10.50;;;27.30;70.90;;;;;;5077333;28;20065;-49
2022/02/03 11:11:18;;;;;;;29.15;10.48;;;27.30;71.40;;;;;;5096830;28;20077;-46
2022/02/03 11:13:45;;;;;;;27.95;10.68;;;27.30;72.30;;;;;;5105012;28;20031;-51
2022/02/03 11:16:15;;;;;;;23.52;10.23;;;27.30;71.70;;;;;;5104507;28;20066;-50
2022/02/03 11:18:45;;;;;;;25.27;10.07;;;27.30;71.30;;;;;;5103348;28;20079;-54
2022/02/03 11:21:13;;;;;;;27.75;10.00;;;27.40;71.30;;;;;;5102920;28;20020;-53
2022/02/03 11:23:46;;;;;;;21.58;9.25;;;27.40;71.30;;;;;;5102194;28;20028;-51
2022/02/03 11:37:35;;;;;;;22.52;9.15;;;27.50;70.60;;;;;;5104572;28;20067;-54
2022/02/03 11:40:34;;;;;;;15.63;8.70;;;27.50;70.40;;;;;;5104307;28;20244;-53
2022/02/03 12:02:54;;;;;;;26.90;16.20;;;27.60;69.50;;;;;;5022848;28;20018;-53
2022/02/03 12:14:19;;;;;;;34.55;18.67;;;27.60;68.90;;;;;;5104505;28;20078;-52
2022/02/03 12:21:49;;;;;;;39.92;20.30;;;27.70;68.70;;;;;;5103910;28;20312;-54
2022/02/03 12:24:32;;;;;;;39.53;20.63;;;27.70;68.70;;;;;;5104849;28;20032;-55
2022/02/03 12:29:37;;;;;;;39.67;21.15;;;27.80;68.40;;;;;;5103861;28;20044;-52
2022/02/03 12:39:56;;;;;;;40.45;22.05;;;27.80;68.20;;;;;;5108542;28;20016;-51
2022/02/03 12:42:43;;;;;;;43.25;21.67;;;27.80;68.30;;;;;;5107798;28;20034;-56
2022/02/03 12:45:18;;;;;;;39.85;22.80;;;27.80;68.10;;;;;;5107942;28;20095;-51
2022/02/03 12:47:52;;;;;;;40.00;23.00;;;27.80;68.10;;;;;;5106422;28;20038;-55
2022/02/03 12:50:24;;;;;;;45.17;23.42;;;27.90;68.10;;;;;;5107642;28;20020;-52
2022/02/03 12:52:52;;;;;;;47.78;25.23;;;27.80;68.00;;;;;;5107608;28;20079;-53
2022/02/03 12:55:29;;;;;;;43.15;22.90;;;27.80;68.00;;;;;;5107570;28;20087;-52
2022/02/03 12:57:58;;;;;;;45.22;24.40;;;27.80;68.00;;;;;;5107711;28;20200;-59
2022/02/03 13:00:33;;;;;;;45.55;24.45;;;27.80;68.00;;;;;;5107412;28;20079;-53
2022/02/03 13:03:03;;;;;;;44.90;24.17;;;27.90;68.00;;;;;;5107469;28;20093;-50
2022/02/03 13:05:34;;;;;;;43.97;24.10;;;27.80;68.00;;;;;;5107315;28;20091;-47
2022/02/03 13:08:05;;;;;;;45.38;24.58;;;27.90;68.00;;;;;;5107555;28;20035;-52
2022/02/03 13:10:35;;;;;;;45.53;23.42;;;27.90;68.00;;;;;;5107648;28;20027;-52
2022/02/03 13:13:24;;;;;;;43.03;22.38;;;27.90;68.00;;;;;;5107975;28;20016;-53
2022/02/03 13:15:50;;;;;;;50.10;21.70;;;27.90;68.10;;;;;;5108111;28;20121;-51
2022/02/03 13:18:32;;;;;;;41.70;20.13;;;27.90;68.90;;;;;;5107530;28;20102;-51
2022/02/03 13:21:08;;;;;;;39.10;16.98;;;27.90;68.60;;;;;;5107232;28;20023;-56
2022/02/03 13:23:39;;;;;;;34.42;16.63;;;27.90;69.00;;;;;;5107453;28;20020;-55
2022/02/03 13:26:13;;;;;;;33.97;14.88;;;27.90;69.20;;;;;;5107309;28;20083;-54
2022/02/03 13:29:04;;;;;;;30.33;15.13;;;27.90;69.40;;;;;;5107192;28;20101;-53
2022/02/03 13:34:46;;;;;;;33.83;12.52;;;27.90;70.10;;;;;;5073018;28;20123;-51
2022/02/03 13:37:23;;;;;;;24.33;11.63;;;27.90;70.20;;;;;;5106749;28;20015;-52
2022/02/03 13:40:08;;;;;;;23.05;11.18;;;27.90;70.30;;;;;;5107313;28;20297;-52
2022/02/03 13:43:11;;;;;;;24.25;11.38;;;27.90;70.60;;;;;;5107110;28;20020;-56
2022/02/03 13:45:44;;;;;;;24.67;11.77;;;27.90;70.60;;;;;;5106796;28;20050;-56
2022/02/03 13:48:29;;;;;;;22.55;10.32;;;27.90;70.70;;;;;;5105759;28;20032;-51
2022/02/03 13:50:57;;;;;;;27.92;10.88;;;27.90;71.00;;;;;;5106698;28;20024;-54
2022/02/03 14:10:43;;;;;;;;;;;27.90;70.60;;;;;;5106350;28;20073;-52
2022/02/03 14:19:14;;;;;;;23.02;9.75;;;27.90;70.70;;;;;;5063925;28;20017;-51
2022/02/03 14:21:44;;;;;;;24.35;10.80;;;27.90;70.60;;;;;;5091145;28;20031;-54
2022/02/03 14:27:16;;;;;;;25.83;10.55;;;27.90;70.60;;;;;;5106070;28;20012;-50
2022/02/03 14:29:47;;;;;;;27.60;10.50;;;28.00;70.40;;;;;;5105778;28;20086;-51
2022/02/03 14:32:16;;;;;;;35.28;11.25;;;28.00;70.40;;;;;;5105683;28;20261;-50
2022/02/03 14:34:43;;;;;;;24.45;11.07;;;28.00;70.70;;;;;;5106175;28;20039;-52
2022/02/03 14:37:43;;;;;;;28.13;11.18;;;28.00;70.20;;;;;;5105360;28;20012;-55
2022/02/03 14:40:32;;;;;;;27.75;11.00;;;28.00;70.20;;;;;;5105951;28;20266;-51
2022/02/03 14:42:44;;;;;;;30.98;11.45;;;28.00;70.20;;;;;;5105267;28;20224;-51
2022/02/03 14:45:13;;;;;;;25.73;11.25;;;28.00;70.20;;;;;;5105437;28;20024;-48
2022/02/03 14:47:41;;;;;;;23.50;10.85;;;28.00;70.10;;;;;;5105657;28;20141;-53
2022/02/03 14:50:10;;;;;;;27.20;11.15;;;28.00;70.10;;;;;;5105405;28;20028;-59
2022/02/03 14:58:17;;;;;;;32.88;11.73;;;28.10;70.00;;;;;;5105222;28;20315;-56
2022/02/03 15:00:48;;;;;;;24.55;11.10;;;28.10;70.00;;;;;;5105327;28;20099;-52
2022/02/03 15:03:16;;;;;;;25.15;10.32;;;28.10;69.90;;;;;;5104940;28;20065;-52
2022/02/03 15:05:43;;;;;;;26.38;9.82;;;28.10;69.80;;;;;;5104813;28;20047;-49
2022/02/03 15:08:22;;;;;;;19.15;9.80;;;28.10;69.80;;;;;;5105157;28;20024;-49
2022/02/03 15:11:02;;;;;;;23.80;11.07;;;28.10;69.80;;;;;;5105007;28;20028;-53
2022/02/03 15:16:01;;;;;;;17.58;10.40;;;28.20;69.90;;;;;;5105612;28;20039;-53
2022/02/03 15:18:29;;;;;;;21.02;10.23;;;28.20;69.80;;;;;;5105069;28;20343;-51
2022/02/03 15:20:56;;;;;;;22.58;10.88;;;28.10;69.70;;;;;;5105092;28;20028;-52
2022/02/03 15:23:24;;;;;;;19.55;10.85;;;28.20;69.80;;;;;;5105094;28;20047;-53
2022/02/03 15:25:53;;;;;;;20.45;10.98;;;28.10;69.70;;;;;;5104743;28;20016;-57
2022/02/03 15:28:20;;;;;;;19.17;10.73;;;28.10;69.60;;;;;;5086928;28;20347;-50
2022/02/03 15:30:47;;;;;;;20.73;11.18;;;28.20;69.70;;;;;;5104918;28;20073;-51
2022/02/03 15:33:16;;;;;;;23.88;11.70;;;28.20;69.60;;;;;;5104584;28;20035;-58
2022/02/03 15:35:50;;;;;;;18.60;11.55;;;28.20;69.60;;;;;;5105507;28;20098;-49
2022/02/03 15:38:19;;;;;;;25.50;13.48;;;28.20;69.70;;;;;;5104598;28;20016;-55
2022/02/03 15:40:48;;;;;;;23.35;14.60;;;28.20;69.70;;;;;;5104482;28;20020;-52
2022/02/03 15:45:49;;;;;;;24.80;15.20;;;28.20;70.40;;;;;;5104826;28;20012;-51
2022/02/03 15:48:32;;;;;;;25.75;17.10;;;28.20;70.00;;;;;;5104369;28;20131;-52
2022/02/03 16:17:57;;;;;;;34.92;20.45;;;28.30;72.00;;;;;;5108485;28;20278;-51
2022/02/03 16:20:32;;;;;;;37.10;20.40;;;28.30;71.90;;;;;;5107670;28;20028;-50
2022/02/03 16:23:28;;;;;;;31.73;19.73;;;28.30;71.90;;;;;;5108549;28;20323;-56
2022/02/03 16:40:55;;;;;;;32.10;19.75;;;28.30;72.80;;;;;;5108059;28;20083;-52
2022/02/03 16:53:03;;;;;;;39.83;20.13;;;28.30;74.20;;;;;;5107537;28;20012;-52
2022/02/03 16:55:34;;;;;;;54.45;21.08;;;28.30;74.10;;;;;;5107641;28;20290;-51
2022/02/03 16:58:04;;;;;;;45.40;20.17;;;28.30;74.00;;;;;;5107822;28;20030;-49
2022/02/03 17:00:31;;;;;;;55.40;20.30;;;28.30;73.80;;;;;;5107607;28;20028;-46
2022/02/03 17:02:59;;;;;;;54.38;20.13;;;28.30;73.80;;;;;;5107432;28;20024;-58
2022/02/03 17:05:26;;;;;;;50.50;20.13;;;28.30;73.70;;;;;;5107503;28;20027;-53
2022/02/03 17:07:52;;;;;;;57.13;19.50;;;28.30;73.90;;;;;;5107359;28;20196;-54
2022/02/03 17:10:19;;;;;;;40.80;17.88;;;28.40;73.80;;;;;;5106119;28;20024;-51
2022/02/03 17:12:47;;;;;;;36.10;18.35;;;28.40;73.70;;;;;;5089437;28;20058;-51
2022/02/03 17:15:14;;;;;;;42.05;17.83;;;28.40;73.90;;;;;;5107566;28;20015;-50
2022/02/03 17:17:42;;;;;;;42.33;17.52;;;28.40;74.00;;;;;;5107337;28;20020;-50
2022/02/03 17:20:09;;;;;;;35.30;17.67;;;28.40;74.00;;;;;;5107053;28;20015;-51
2022/02/03 17:22:41;;;;;;;35.08;17.17;;;28.40;74.10;;;;;;5106908;28;20213;-52
2022/02/03 17:25:17;;;;;;;;;;;28.40;74.10;;;;;;5107953;28;20024;-51
2022/02/03 17:27:54;;;;;;;36.42;15.93;;;28.40;74.40;;;;;;5106530;28;19927;-55
2022/02/03 17:30:36;;;;;;;31.38;14.77;;;28.40;74.30;;;;;;5106867;28;20016;-58
2022/02/03 18:08:50;;;;;;;21.10;11.23;;;28.60;74.10;;;;;;5106398;28;20050;-54
2022/02/03 18:52:20;;;;;;;20.67;9.60;;;28.80;72.20;;;;;;5105555;28;20016;-49
2022/02/03 19:11:42;;;;;;;17.27;9.18;;;28.90;71.20;;;;;;5105186;28;20027;-51
2022/02/03 20:10:04;;;;;;;27.60;10.65;;;29.20;69.30;;;;;;5101471;28;20330;-48
2022/02/03 20:12:30;;;;;;;23.98;10.27;;;29.20;69.20;;;;;;5101444;28;20223;-50
2022/02/03 20:14:58;;;;;;;22.67;10.35;;;29.20;69.20;;;;;;5102263;28;20040;-52
2022/02/03 20:17:27;;;;;;;18.90;10.35;;;29.20;69.20;;;;;;5101477;28;20097;-53
2022/02/03 20:19:55;;;;;;;18.73;10.85;;;29.20;69.20;;;;;;5101695;28;20032;-56
2022/02/03 20:22:28;;;;;;;17.02;10.55;;;29.20;69.20;;;;;;5101650;28;20086;-54
2022/02/03 20:24:55;;;;;;;24.55;10.38;;;29.20;69.20;;;;;;5101864;28;20024;-56
2022/02/03 20:27:21;;;;;;;25.77;10.57;;;29.20;69.10;;;;;;5102103;28;20312;-53
2022/02/03 20:29:54;;;;;;;20.55;11.25;;;29.20;69.10;;;;;;5101256;28;20024;-53
2022/02/03 20:32:21;;;;;;;21.60;10.65;;;29.20;69.10;;;;;;5100642;28;20092;-53
2022/02/03 20:34:48;;;;;;;19.83;10.13;;;29.20;69.00;;;;;;5101030;28;20315;-53
2022/02/03 20:37:15;;;;;;;20.33;10.45;;;29.20;69.00;;;;;;5101069;28;20032;-55
2022/02/03 20:39:43;;;;;;;16.92;10.30;;;29.20;69.10;;;;;;5100793;28;20059;-57
2022/02/03 20:42:15;;;;;;;21.63;10.50;;;29.20;69.00;;;;;;5100748;28;20020;-56
2022/02/03 20:44:44;;;;;;;16.60;9.57;;;29.20;69.10;;;;;;5100922;28;20257;-52
2022/02/03 20:47:11;;;;;;;17.83;9.85;;;29.20;69.10;;;;;;5100671;28;20028;-43
2022/02/03 20:49:38;;;;;;;16.20;9.48;;;29.20;69.10;;;;;;5100540;28;20082;-43
2022/02/03 20:52:05;;;;;;;18.15;10.00;;;29.20;69.10;;;;;;5100461;28;20020;-43
2022/02/03 20:54:32;;;;;;;17.48;9.85;;;29.30;69.10;;;;;;5100747;28;20044;-50
2022/02/03 20:56:59;;;;;;;18.10;9.88;;;29.30;69.10;;;;;;5088459;28;20116;-47
2022/02/03 20:59:30;;;;;;;14.93;9.38;;;29.20;69.00;;;;;;5087323;28;20169;-50
2022/02/03 21:02:01;;;;;;;16.10;9.55;;;29.20;68.90;;;;;;5087253;28;20036;-50
2022/02/03 21:04:55;;;;;;;12.55;9.02;;;29.20;68.80;;;;;;5085637;28;20273;-54
2022/02/03 21:07:17;;;;;;;15.35;9.10;;;29.30;68.80;;;;;;5086561;28;20024;-47
2022/02/03 21:09:47;;;;;;;16.67;9.10;;;29.30;68.70;;;;;;5087041;28;20017;-51
2022/02/03 21:12:14;;;;;;;13.40;9.07;;;29.30;68.70;;;;;;5086341;28;20024;-51
2022/02/03 21:14:41;;;;;;;14.32;9.50;;;29.30;68.60;;;;;;5086625;28;20028;-48
2022/02/03 21:17:08;;;;;;;16.33;9.10;;;29.30;68.70;;;;;;5086452;28;20028;-46
2022/02/03 21:19:35;;;;;;;14.52;9.30;;;29.30;68.70;;;;;;5085113;28;20208;-44
2022/02/03 21:22:01;;;;;;;16.40;8.50;;;29.30;68.60;;;;;;5086322;28;20020;-46
2022/02/03 21:24:28;;;;;;;19.90;9.10;;;29.30;68.60;;;;;;5086391;28;20308;-50
2022/02/03 21:26:58;;;;;;;15.10;8.93;;;29.30;68.70;;;;;;5086106;28;20032;-48
2022/02/03 21:29:27;;;;;;;19.58;9.10;;;29.30;68.70;;;;;;5086372;28;20020;-52
2022/02/03 21:31:53;;;;;;;14.45;8.38;;;29.30;68.60;;;;;;5084123;28;20029;-47
2022/02/03 21:34:23;;;;;;;17.85;8.90;;;29.30;68.60;;;;;;5086033;28;20058;-49
2022/02/03 21:36:54;;;;;;;19.20;9.02;;;29.30;68.60;;;;;;5085974;28;20024;-47
2022/02/03 21:39:21;;;;;;;18.63;9.00;;;29.30;68.60;;;;;;5086205;28;20169;-47
2022/02/03 21:41:48;;;;;;;22.95;9.02;;;29.30;68.60;;;;;;5084556;28;20032;-50
2022/02/03 21:44:15;;;;;;;18.02;9.02;;;29.30;68.60;;;;;;5085827;28;20023;-49
2022/02/03 21:46:43;;;;;;;12.60;8.23;;;29.30;68.60;;;;;;5085865;28;20024;-45
2022/02/03 22:16:37;;;;;;;43.60;9.35;;;29.30;69.10;;;;;;5085455;28;20308;-48
2022/02/03 22:19:04;;;;;;;40.70;9.52;;;29.30;69.10;;;;;;5085236;28;20066;-44
2022/02/03 22:21:42;;;;;;;37.72;10.15;;;29.30;69.20;;;;;;5085018;28;20027;-50
2022/02/03 22:24:20;;;;;;;32.33;9.93;;;29.30;69.20;;;;;;5085120;28;20024;-44
2022/02/03 22:42:50;;;;;;;55.10;11.10;;;29.30;70.00;;;;;;5084675;28;20024;-50
2022/02/03 22:45:23;;;;;;;;;;;29.30;70.00;;;;;;5085299;28;20031;-45
2022/02/03 22:50:16;;;;;;;60.45;11.55;;;29.30;70.50;;;;;;5084161;28;20108;-47
2022/02/03 22:52:43;;;;;;;55.10;12.55;;;29.30;70.70;;;;;;5084512;28;20187;-54
2022/02/03 22:55:12;;;;;;;57.72;12.43;;;29.30;70.80;;;;;;5085028;28;20025;-51
2022/02/03 22:57:41;;;;;;;58.67;13.50;;;29.30;70.80;;;;;;5084191;28;20270;-47
2022/02/03 23:02:38;;;;;;;61.47;18.25;;;29.30;70.80;;;;;;5084165;28;20016;-47
2022/02/03 23:05:06;;;;;;;84.55;33.75;;;29.30;70.70;;;;;;5084414;28;20091;-47
2022/02/03 23:10:46;;;;;;;72.80;30.05;;;29.30;70.70;;;;;;5084212;28;20208;-51
2022/02/03 23:13:35;;;;;;;61.17;26.73;;;29.30;70.90;;;;;;5083840;28;20040;-45
2022/02/03 23:16:18;;;;;;;70.97;33.22;;;29.30;70.90;;;;;;5084085;28;20036;-46
2022/02/03 23:24:00;;;;;;;66.57;24.60;;;29.20;71.20;;;;;;5084256;28;20033;-46
2022/02/03 23:26:28;;;;;;;54.17;21.13;;;29.30;71.90;;;;;;5083406;28;20039;-46
2022/02/03 23:29:02;;;;;;;59.97;19.90;;;29.20;71.30;;;;;;5084451;28;20100;-46
2022/02/03 23:32:04;;;;;;;70.75;19.80;;;29.20;71.30;;;;;;5084485;28;20020;-48
2022/02/03 23:34:18;;;;;;;57.05;17.40;;;29.20;71.20;;;;;;5084120;28;20032;-52
2022/02/03 23:36:45;;;;;;;65.47;17.10;;;29.20;71.00;;;;;;5083585;28;20114;-47
2022/02/03 23:39:20;;;;;;;57.25;15.95;;;29.20;71.00;;;;;;5084229;28;20051;-46
2022/02/03 23:44:41;;;;;;;70.80;17.17;;;29.20;70.90;;;;;;5084342;28;20039;-44
2022/02/03 23:52:28;;;;;;;65.85;15.38;;;29.20;70.80;;;;;;5084319;28;20013;-49
